createdAt,value
2022-07-30T00:00:40.150Z,78.79
2022-07-30T00:03:08.683Z,78.57
2022-07-30T00:05:37.170Z,78.93
2022-07-30T00:08:05.993Z,78.67
2022-07-30T00:10:34.440Z,78.52
2022-07-30T00:13:02.979Z,78.41
2022-07-30T00:15:33.047Z,78.17
2022-07-30T00:18:01.620Z,78.12
2022-07-30T00:20:30.415Z,77.93
2022-07-30T00:23:00.741Z,77.75
2022-07-30T00:25:29.117Z,77.71
2022-07-30T00:27:57.756Z,77.52
2022-07-30T00:30:26.766Z,77.43
2022-07-30T00:32:56.658Z,77.27
2022-07-30T00:35:25.128Z,77.52
2022-07-30T00:37:56.130Z,77.50
2022-07-30T00:40:25.150Z,77.37
2022-07-30T00:42:53.682Z,77.30
2022-07-30T00:45:22.106Z,77.39
2022-07-30T00:47:50.820Z,77.32
2022-07-30T00:50:20.731Z,77.30
2022-07-30T00:52:50.054Z,77.15
2022-07-30T00:55:19.265Z,77.38
2022-07-30T00:57:47.857Z,77.28
2022-07-30T01:00:18.563Z,77.20
2022-07-30T01:02:47.366Z,77.37
2022-07-30T01:05:16.166Z,77.17
2022-07-30T01:07:46.503Z,77.47
2022-07-30T01:10:16.807Z,77.59
2022-07-30T01:12:47.315Z,77.73
2022-07-30T01:15:17.381Z,77.79
2022-07-30T01:17:52.705Z,77.47
2022-07-30T01:20:27.844Z,77.79
2022-07-30T01:23:06.535Z,77.59
2022-07-30T01:25:55.664Z,78.14
2022-07-30T01:28:27.895Z,77.88
2022-07-30T01:30:58.624Z,77.98
2022-07-30T01:33:29.111Z,77.92
2022-07-30T01:35:59.384Z,77.78
2022-07-30T01:38:35.163Z,78.35
2022-07-30T01:41:08.051Z,78.38
2022-07-30T01:43:37.677Z,78.33
2022-07-30T01:46:07.386Z,78.34
2022-07-30T01:48:38.704Z,78.36
2022-07-30T01:51:08.149Z,78.30
2022-07-30T01:53:40.875Z,78.35
2022-07-30T01:56:13.580Z,78.31
2022-07-30T01:58:48.209Z,78.63
2022-07-30T02:01:17.146Z,78.65
2022-07-30T02:03:45.985Z,78.60
2022-07-30T02:06:20.000Z,78.55
2022-07-30T02:08:55.797Z,78.85
2022-07-30T02:11:39.615Z,79.16
2022-07-30T02:14:12.819Z,79.35
2022-07-30T02:16:44.365Z,79.08
2022-07-30T02:19:15.946Z,78.81
2022-07-30T02:21:50.493Z,78.95
2022-07-30T02:24:23.746Z,78.81
2022-07-30T02:26:58.355Z,79.19
2022-07-30T02:29:27.653Z,79.05
2022-07-30T02:31:59.919Z,79.57
2022-07-30T02:34:31.392Z,79.15
2022-07-30T02:37:02.746Z,79.27
2022-07-30T02:39:33.077Z,79.65
2022-07-30T02:42:05.271Z,79.73
2022-07-30T02:44:34.772Z,79.98
2022-07-30T02:47:05.415Z,79.98
2022-07-30T02:49:37.097Z,80.23
2022-07-30T02:52:09.333Z,80.31
2022-07-30T02:54:40.183Z,80.72
2022-07-30T02:57:11.164Z,80.67
2022-07-30T02:59:42.659Z,80.93
2022-07-30T03:02:14.882Z,81.27
2022-07-30T03:04:44.881Z,81.10
2022-07-30T03:07:18.677Z,81.02
2022-07-30T03:09:52.121Z,81.06
2022-07-30T03:12:23.974Z,81.44
2022-07-30T03:14:52.835Z,81.50
2022-07-30T03:17:23.343Z,81.17
2022-07-30T03:19:52.467Z,81.16
2022-07-30T03:22:22.805Z,81.17
2022-07-30T03:24:53.010Z,81.13
2022-07-30T03:27:24.938Z,81.56
2022-07-30T03:29:56.177Z,81.44
2022-07-30T03:32:26.215Z,81.90
2022-07-30T03:34:56.118Z,82.27
2022-07-30T03:37:27.221Z,82.39
2022-07-30T03:39:58.671Z,82.57
2022-07-30T03:42:28.983Z,82.46
2022-07-30T03:44:59.413Z,82.35
2022-07-30T03:47:29.338Z,82.64
2022-07-30T03:49:58.066Z,83.09
2022-07-30T03:52:27.627Z,82.96
2022-07-30T03:54:56.504Z,83.60
2022-07-30T03:57:25.277Z,83.80
2022-07-30T03:59:55.357Z,83.59
2022-07-30T04:02:23.855Z,83.72
2022-07-30T04:04:52.878Z,83.73
2022-07-30T04:07:21.414Z,83.79
2022-07-30T04:09:49.948Z,85.24
2022-07-30T04:12:18.415Z,83.91
2022-07-30T04:14:47.300Z,83.65
2022-07-30T04:17:23.137Z,83.95
2022-07-30T04:19:55.227Z,84.52
2022-07-30T04:22:29.749Z,84.07
2022-07-30T04:25:00.111Z,83.92
2022-07-30T04:27:29.578Z,83.90
2022-07-30T04:29:58.485Z,85.62
2022-07-30T04:32:30.025Z,85.27
2022-07-30T04:34:59.145Z,84.61
2022-07-30T04:37:29.363Z,85.26
2022-07-30T04:39:58.984Z,84.76
2022-07-30T04:42:28.984Z,84.65
2022-07-30T04:44:58.388Z,84.25
2022-07-30T04:47:28.513Z,84.66
2022-07-30T04:49:58.676Z,84.52
2022-07-30T04:52:27.856Z,85.37
2022-07-30T04:54:59.387Z,84.99
2022-07-30T04:57:30.022Z,84.99
2022-07-30T04:59:58.627Z,84.53
2022-07-30T05:02:31.693Z,84.11
2022-07-30T05:05:01.445Z,83.71
2022-07-30T05:07:33.717Z,83.60
2022-07-30T05:10:02.361Z,83.52
2022-07-30T05:12:34.654Z,83.66
2022-07-30T05:15:03.167Z,83.48
2022-07-30T05:17:33.342Z,83.62
2022-07-30T05:20:02.045Z,83.82
2022-07-30T05:22:31.376Z,83.77
2022-07-30T05:25:00.189Z,84.45
2022-07-30T05:27:28.981Z,84.54
2022-07-30T05:29:57.447Z,83.61
2022-07-30T05:32:27.130Z,83.48
2022-07-30T05:34:58.826Z,82.99
2022-07-30T05:37:27.354Z,83.44
2022-07-30T05:40:02.324Z,82.74
2022-07-30T05:42:31.490Z,83.00
2022-07-30T05:45:00.875Z,82.63
2022-07-30T05:47:29.335Z,82.73
2022-07-30T05:50:04.207Z,82.71
2022-07-30T05:52:33.599Z,82.25
2022-07-30T05:55:02.153Z,82.21
2022-07-30T05:57:30.744Z,81.84
2022-07-30T05:59:59.349Z,81.60
2022-07-30T06:02:27.893Z,82.06
2022-07-30T06:04:56.457Z,81.63
2022-07-30T06:07:26.360Z,80.82
2022-07-30T06:09:54.821Z,81.78
2022-07-30T06:12:23.523Z,81.83
2022-07-30T06:14:52.058Z,80.99
2022-07-30T06:17:20.515Z,81.13
2022-07-30T06:19:49.014Z,81.30
2022-07-30T06:22:20.699Z,81.16
2022-07-30T06:24:52.709Z,80.82
2022-07-30T06:27:21.111Z,80.73
2022-07-30T06:29:49.581Z,81.15
2022-07-30T06:32:19.443Z,81.24
2022-07-30T06:34:47.880Z,81.18
2022-07-30T06:37:17.242Z,81.61
2022-07-30T06:39:57.946Z,81.65
2022-07-30T06:42:29.149Z,81.71
2022-07-30T06:44:57.753Z,81.39
2022-07-30T06:47:29.334Z,80.38
2022-07-30T06:49:58.434Z,80.38
2022-07-30T06:52:26.933Z,79.70
2022-07-30T06:54:55.653Z,79.16
2022-07-30T06:57:24.339Z,79.27
2022-07-30T06:59:56.236Z,78.91
2022-07-30T07:02:26.712Z,78.69
2022-07-30T07:05:02.115Z,78.60
2022-07-30T07:07:41.164Z,77.79
2022-07-30T07:10:11.434Z,77.82
2022-07-30T07:12:39.899Z,77.90
2022-07-30T07:15:11.144Z,77.90
2022-07-30T07:17:40.724Z,77.42
2022-07-30T07:20:10.222Z,78.36
2022-07-30T07:22:50.178Z,78.05
2022-07-30T07:25:19.048Z,78.69
2022-07-30T07:28:11.740Z,78.05
2022-07-30T07:30:38.414Z,78.43
2022-07-30T07:33:07.102Z,78.32
2022-07-30T07:35:45.537Z,78.35
2022-07-30T07:38:17.835Z,77.29
2022-07-30T07:40:47.504Z,77.50
2022-07-30T07:43:16.867Z,77.32
2022-07-30T07:45:48.163Z,77.12
2022-07-30T07:48:17.183Z,76.87
2022-07-30T07:50:45.845Z,76.77
2022-07-30T07:53:14.557Z,76.37
2022-07-30T07:55:43.517Z,76.23
2022-07-30T07:58:18.182Z,76.28
2022-07-30T08:00:56.045Z,76.02
2022-07-30T08:03:25.655Z,76.09
2022-07-30T08:06:05.419Z,75.65
2022-07-30T08:08:37.289Z,75.50
2022-07-30T08:11:07.729Z,75.50
2022-07-30T08:13:52.331Z,75.10
2022-07-30T08:16:24.172Z,75.10
2022-07-30T08:18:52.767Z,74.98
2022-07-30T08:21:21.200Z,74.91
2022-07-30T08:23:50.070Z,74.95
2022-07-30T08:26:18.521Z,74.50
2022-07-30T08:28:47.036Z,74.63
2022-07-30T08:31:15.916Z,74.49
2022-07-30T08:33:46.121Z,74.21
2022-07-30T08:36:14.609Z,74.33
2022-07-30T08:38:43.155Z,74.24
2022-07-30T08:41:11.720Z,74.19
2022-07-30T08:43:41.499Z,73.73
2022-07-30T08:46:14.367Z,73.58
2022-07-30T08:48:43.803Z,73.32
2022-07-30T08:51:14.846Z,73.58
2022-07-30T08:53:44.776Z,73.33
2022-07-30T08:56:13.526Z,73.10
2022-07-30T08:58:43.553Z,73.72
2022-07-30T09:01:11.953Z,73.52
2022-07-30T09:03:44.536Z,73.13
2022-07-30T09:06:14.626Z,73.93
2022-07-30T09:08:43.232Z,73.90
2022-07-30T09:11:11.709Z,72.98
2022-07-30T09:13:42.565Z,73.37
2022-07-30T09:16:22.494Z,73.13
2022-07-30T09:18:52.406Z,73.22
2022-07-30T09:21:24.805Z,74.06
2022-07-30T09:24:01.404Z,75.50
2022-07-30T09:26:30.275Z,75.67
2022-07-30T09:29:17.596Z,78.71
2022-07-30T09:31:58.078Z,79.14
2022-07-30T09:34:31.533Z,81.15
2022-07-30T09:37:03.664Z,81.67
2022-07-30T09:39:34.308Z,82.31
2022-07-30T09:42:04.316Z,83.17
2022-07-30T09:44:33.573Z,83.43
2022-07-30T09:47:03.156Z,85.03
2022-07-30T09:49:34.418Z,85.30
2022-07-30T09:52:04.459Z,87.38
2022-07-30T09:54:51.309Z,86.11
2022-07-30T09:57:25.915Z,85.98
2022-07-30T09:59:56.938Z,85.77
2022-07-30T10:02:35.377Z,87.08
2022-07-30T10:05:16.742Z,87.79
2022-07-30T10:07:54.236Z,88.08
2022-07-30T10:10:25.712Z,89.38
2022-07-30T10:12:56.557Z,88.95
2022-07-30T10:15:29.316Z,91.47
2022-07-30T10:17:58.476Z,92.25
2022-07-30T10:20:27.418Z,96.04
2022-07-30T10:22:57.832Z,93.30
2022-07-30T10:25:28.462Z,94.34
2022-07-30T10:27:58.089Z,94.41
2022-07-30T10:30:29.164Z,98.08
2022-07-30T10:33:00.166Z,100.00
2022-07-30T10:35:34.218Z,98.89
2022-07-30T10:38:13.671Z,98.20
2022-07-30T10:40:49.762Z,100.00
2022-07-30T10:44:01.108Z,100.00
2022-07-30T10:46:45.074Z,100.00
2022-07-30T10:49:18.580Z,100.00
2022-07-30T10:51:50.121Z,99.45
2022-07-30T10:54:42.893Z,100.00
2022-07-30T10:57:22.703Z,100.00
2022-07-30T11:00:12.281Z,100.00
2022-07-30T11:03:15.944Z,100.00
2022-07-30T11:05:45.937Z,100.00
2022-07-30T11:08:48.669Z,100.00
2022-07-30T11:12:02.140Z,100.00
2022-07-30T11:14:57.046Z,100.00
2022-07-30T11:17:25.968Z,100.00
2022-07-30T11:20:13.295Z,100.00
2022-07-30T11:22:44.838Z,100.00
2022-07-30T11:25:51.658Z,100.00
2022-07-30T11:28:49.561Z,100.00
2022-07-30T11:31:37.039Z,100.00
2022-07-30T11:34:29.146Z,100.00
2022-07-30T11:37:19.322Z,100.00
2022-07-30T11:40:13.319Z,100.00
2022-07-30T11:42:44.403Z,100.00
2022-07-30T11:45:29.871Z,100.00
2022-07-30T11:48:01.571Z,100.00
2022-07-30T11:50:32.382Z,100.00
2022-07-30T11:53:03.101Z,100.00
2022-07-30T11:55:33.094Z,100.00
2022-07-30T11:58:03.520Z,100.00
2022-07-30T12:00:41.845Z,100.00
2022-07-30T12:03:15.665Z,100.00
2022-07-30T12:05:45.664Z,100.00
2022-07-30T12:08:35.929Z,100.00
2022-07-30T12:11:05.196Z,100.00
2022-07-30T12:13:45.748Z,100.00
2022-07-30T12:16:18.122Z,100.00
2022-07-30T12:18:47.807Z,100.00
2022-07-30T12:21:17.423Z,100.00
2022-07-30T12:23:56.048Z,100.00
2022-07-30T12:26:27.147Z,100.00
2022-07-30T12:28:56.767Z,100.00
2022-07-30T12:31:27.168Z,100.00
2022-07-30T12:33:58.992Z,100.00
2022-07-30T12:36:32.891Z,100.00
2022-07-30T12:39:01.973Z,100.00
2022-07-30T12:41:52.176Z,100.00
2022-07-30T12:44:39.922Z,100.00
2022-07-30T12:47:22.011Z,100.00
2022-07-30T12:49:53.378Z,100.00
2022-07-30T12:52:28.699Z,100.00
2022-07-30T12:55:07.186Z,100.00
2022-07-30T12:57:55.833Z,100.00
2022-07-30T13:00:24.691Z,100.00
2022-07-30T13:02:55.384Z,100.00
2022-07-30T13:05:44.389Z,100.00
2022-07-30T13:08:12.942Z,100.00
2022-07-30T13:10:55.913Z,100.00
2022-07-30T13:13:24.761Z,100.00
2022-07-30T13:16:01.287Z,100.00
2022-07-30T13:18:32.115Z,100.00
2022-07-30T13:21:01.121Z,100.00
2022-07-30T13:23:30.875Z,100.00
2022-07-30T13:25:59.541Z,100.00
2022-07-30T13:28:28.426Z,100.00
2022-07-30T13:30:58.142Z,100.00
2022-07-30T13:33:27.164Z,100.00
2022-07-30T13:35:57.488Z,100.00
2022-07-30T13:38:26.488Z,100.00
2022-07-30T13:40:58.016Z,100.00
2022-07-30T13:43:32.047Z,100.00
2022-07-30T13:46:03.259Z,100.00
2022-07-30T13:48:32.113Z,100.00
2022-07-30T13:51:04.477Z,100.00
2022-07-30T13:53:33.508Z,100.00
2022-07-30T13:56:02.027Z,100.00
2022-07-30T13:58:35.732Z,100.00
2022-07-30T14:01:07.659Z,100.00
2022-07-30T14:03:36.625Z,100.00
2022-07-30T14:06:10.617Z,100.00
2022-07-30T14:08:40.099Z,100.00
2022-07-30T14:11:08.631Z,100.00
2022-07-30T14:13:38.132Z,100.00
2022-07-30T14:16:18.121Z,100.00
2022-07-30T14:18:55.872Z,100.00
2022-07-30T14:21:26.432Z,100.00
2022-07-30T14:23:55.235Z,100.00
2022-07-30T14:26:23.698Z,100.00
2022-07-30T14:28:52.184Z,100.00
2022-07-30T14:31:20.659Z,100.00
2022-07-30T14:33:49.078Z,100.00
2022-07-30T14:36:17.856Z,100.00
2022-07-30T14:38:47.967Z,100.00
2022-07-30T14:41:16.869Z,100.00
2022-07-30T14:43:45.348Z,100.00
2022-07-30T14:46:14.258Z,100.00
2022-07-30T14:48:42.760Z,100.00
2022-07-30T14:51:16.831Z,100.00
2022-07-30T14:53:53.805Z,100.00
2022-07-30T14:56:24.237Z,100.00
2022-07-30T14:58:55.735Z,100.00
2022-07-30T15:01:24.207Z,100.00
2022-07-30T15:03:52.737Z,100.00
2022-07-30T15:06:21.257Z,100.00
2022-07-30T15:08:51.153Z,100.00
2022-07-30T15:11:21.869Z,100.00
2022-07-30T15:13:50.862Z,100.00
2022-07-30T15:16:20.384Z,100.00
2022-07-30T15:18:48.790Z,100.00
2022-07-30T15:21:17.389Z,100.00
2022-07-30T15:23:45.925Z,100.00
2022-07-30T15:26:15.843Z,100.00
2022-07-30T15:28:44.854Z,100.00
2022-07-30T15:31:13.462Z,100.00
2022-07-30T15:33:43.413Z,100.00
2022-07-30T15:36:12.727Z,100.00
2022-07-30T15:38:41.218Z,100.00
2022-07-30T15:41:13.506Z,100.00
2022-07-30T15:43:43.634Z,100.00
2022-07-30T15:46:12.226Z,100.00
2022-07-30T15:48:40.825Z,100.00
2022-07-30T15:51:09.632Z,100.00
2022-07-30T15:53:38.113Z,100.00
2022-07-30T15:56:07.018Z,100.00
2022-07-30T15:58:37.431Z,100.00
2022-07-30T16:01:10.523Z,100.00
2022-07-30T16:03:39.059Z,100.00
2022-07-30T16:06:07.811Z,100.00
2022-07-30T16:08:36.341Z,100.00
2022-07-30T16:11:05.318Z,100.00
2022-07-30T16:13:33.742Z,100.00
2022-07-30T16:16:02.209Z,100.00
2022-07-30T16:18:32.105Z,100.00
2022-07-30T16:21:01.478Z,100.00
2022-07-30T16:23:36.509Z,100.00
2022-07-30T16:26:05.692Z,100.00
2022-07-30T16:28:34.306Z,100.00
2022-07-30T16:31:02.920Z,100.00
2022-07-30T16:33:33.031Z,100.00
2022-07-30T16:36:01.515Z,100.00
2022-07-30T16:38:30.037Z,100.00
2022-07-30T16:40:58.688Z,100.00
2022-07-30T16:43:27.178Z,100.00
2022-07-30T16:45:55.674Z,100.00
2022-07-30T16:48:24.349Z,100.00
2022-07-30T16:50:54.203Z,100.00
2022-07-30T16:53:23.057Z,100.00
2022-07-30T16:55:51.546Z,100.00
2022-07-30T16:58:21.322Z,100.00
2022-07-30T17:00:56.818Z,100.00
2022-07-30T17:03:25.775Z,100.00
2022-07-30T17:05:55.683Z,100.00
2022-07-30T17:08:24.854Z,100.00
2022-07-30T17:10:54.537Z,100.00
2022-07-30T17:13:27.218Z,100.00
2022-07-30T17:15:55.627Z,100.00
2022-07-30T17:18:24.113Z,100.00
2022-07-30T17:20:53.061Z,100.00
2022-07-30T17:23:23.089Z,100.00
2022-07-30T17:25:51.637Z,100.00
2022-07-30T17:28:21.779Z,100.00
2022-07-30T17:30:55.807Z,100.00
2022-07-30T17:33:25.246Z,100.00
2022-07-30T17:35:53.883Z,100.00
2022-07-30T17:38:24.097Z,100.00
2022-07-30T17:40:52.628Z,100.00
2022-07-30T17:43:23.956Z,100.00
2022-07-30T17:45:53.036Z,100.00
2022-07-30T17:48:21.990Z,100.00
2022-07-30T17:50:51.566Z,100.00
2022-07-30T17:53:20.121Z,100.00
2022-07-30T17:55:57.493Z,100.00
2022-07-30T17:58:27.090Z,100.00
2022-07-30T18:00:56.061Z,100.00
2022-07-30T18:03:24.765Z,100.00
2022-07-30T18:05:53.579Z,100.00
2022-07-30T18:08:23.063Z,100.00
2022-07-30T18:10:53.327Z,100.00
2022-07-30T18:13:26.763Z,100.00
2022-07-30T18:15:56.129Z,100.00
2022-07-30T18:18:24.917Z,100.00
2022-07-30T18:20:53.360Z,100.00
2022-07-30T18:23:22.756Z,100.00
2022-07-30T18:25:54.456Z,100.00
2022-07-30T18:28:23.466Z,100.00
2022-07-30T18:30:52.651Z,100.00
2022-07-30T18:33:21.539Z,100.00
2022-07-30T18:35:50.338Z,100.00
2022-07-30T18:38:19.174Z,100.00
2022-07-30T18:40:57.938Z,100.00
2022-07-30T18:43:29.035Z,100.00
2022-07-30T18:45:58.444Z,100.00
2022-07-30T18:48:27.891Z,100.00
2022-07-30T18:50:56.821Z,100.00
2022-07-30T18:53:25.319Z,100.00
2022-07-30T18:55:54.291Z,100.00
2022-07-30T18:58:23.435Z,100.00
2022-07-30T19:00:53.902Z,100.00
2022-07-30T19:03:23.270Z,100.00
2022-07-30T19:05:51.915Z,100.00
2022-07-30T19:08:20.412Z,100.00
2022-07-30T19:10:49.005Z,100.00
2022-07-30T19:13:17.587Z,100.00
2022-07-30T19:15:46.102Z,100.00
2022-07-30T19:18:16.013Z,100.00
2022-07-30T19:20:44.910Z,100.00
2022-07-30T19:23:13.901Z,100.00
2022-07-30T19:25:43.122Z,100.00
2022-07-30T19:28:14.050Z,100.00
2022-07-30T19:30:42.534Z,100.00
2022-07-30T19:33:15.574Z,100.00
2022-07-30T19:35:46.057Z,100.00
2022-07-30T19:38:22.036Z,100.00
2022-07-30T19:40:52.654Z,100.00
2022-07-30T19:43:23.948Z,100.00
2022-07-30T19:45:54.233Z,100.00
2022-07-30T19:48:29.383Z,100.00
2022-07-30T19:51:01.940Z,100.00
2022-07-30T19:53:31.278Z,100.00
2022-07-30T19:56:02.184Z,100.00
2022-07-30T19:58:32.621Z,100.00
2022-07-30T20:01:01.483Z,100.00
2022-07-30T20:03:31.859Z,100.00
2022-07-30T20:06:02.562Z,100.00
2022-07-30T20:08:31.570Z,100.00
2022-07-30T20:11:01.696Z,100.00
2022-07-30T20:13:45.310Z,100.00
2022-07-30T20:16:14.952Z,100.00
2022-07-30T20:18:45.829Z,100.00
2022-07-30T20:21:16.762Z,100.00
2022-07-30T20:23:47.223Z,100.00
2022-07-30T20:26:22.018Z,100.00
2022-07-30T20:28:52.878Z,100.00
2022-07-30T20:31:22.260Z,100.00
2022-07-30T20:33:50.897Z,100.00
2022-07-30T20:36:22.661Z,100.00
2022-07-30T20:38:51.448Z,100.00
2022-07-30T20:41:20.097Z,100.00
2022-07-30T20:43:52.561Z,100.00
2022-07-30T20:46:23.821Z,100.00
2022-07-30T20:48:53.558Z,100.00
2022-07-30T20:51:33.689Z,100.00
2022-07-30T20:54:02.728Z,100.00
2022-07-30T20:56:31.351Z,100.00
2022-07-30T20:58:59.831Z,100.00
2022-07-30T21:01:30.706Z,100.00
2022-07-30T21:03:59.677Z,100.00
2022-07-30T21:06:29.789Z,100.00
2022-07-30T21:08:58.706Z,100.00
2022-07-30T21:11:27.987Z,100.00
2022-07-30T21:13:56.608Z,100.00
2022-07-30T21:16:30.628Z,100.00
2022-07-30T21:18:59.212Z,100.00
2022-07-30T21:21:38.586Z,100.00
2022-07-30T21:24:15.677Z,100.00
2022-07-30T21:26:46.646Z,100.00
2022-07-30T21:29:15.229Z,100.00
2022-07-30T21:32:00.465Z,100.00
2022-07-30T21:34:36.032Z,100.00
2022-07-30T21:37:12.985Z,100.00
2022-07-30T21:39:44.088Z,100.00
2022-07-30T21:42:12.967Z,100.00
2022-07-30T21:44:41.703Z,100.00
2022-07-30T21:47:10.751Z,100.00
2022-07-30T21:49:40.252Z,100.00
2022-07-30T21:52:15.117Z,100.00
2022-07-30T21:54:50.434Z,100.00
2022-07-30T21:57:26.203Z,100.00
2022-07-30T21:59:55.606Z,100.00
2022-07-30T22:02:24.186Z,100.00
2022-07-30T22:04:54.085Z,100.00
2022-07-30T22:07:24.966Z,100.00
2022-07-30T22:09:55.357Z,100.00
2022-07-30T22:12:25.907Z,100.00
2022-07-30T22:14:57.854Z,100.00
2022-07-30T22:17:37.254Z,100.00
2022-07-30T22:20:14.804Z,100.00
2022-07-30T22:22:44.808Z,100.00
2022-07-30T22:25:14.195Z,100.00
2022-07-30T22:27:56.596Z,100.00
2022-07-30T22:30:27.491Z,100.00
2022-07-30T22:32:56.261Z,100.00
2022-07-30T22:35:32.391Z,100.00
2022-07-30T22:38:04.399Z,100.00
2022-07-30T22:40:33.507Z,100.00
2022-07-30T22:43:07.785Z,100.00
2022-07-30T22:45:48.139Z,100.00
2022-07-30T22:48:19.316Z,100.00
2022-07-30T22:50:52.306Z,100.00
2022-07-30T22:54:10.806Z,100.00
2022-07-30T22:56:14.324Z,100.00
2022-07-30T22:58:44.779Z,100.00
2022-07-30T23:01:17.307Z,100.00
2022-07-30T23:03:46.247Z,100.00
2022-07-30T23:06:16.808Z,100.00
2022-07-30T23:08:50.785Z,100.00
2022-07-30T23:11:19.487Z,100.00
2022-07-30T23:13:49.319Z,100.00
2022-07-30T23:16:17.848Z,100.00
2022-07-30T23:18:46.408Z,100.00
2022-07-30T23:21:15.529Z,100.00
2022-07-30T23:23:44.122Z,100.00
2022-07-30T23:26:14.314Z,100.00
2022-07-30T23:28:43.116Z,100.00
2022-07-30T23:31:12.200Z,100.00
2022-07-30T23:33:41.401Z,100.00
2022-07-30T23:36:11.013Z,100.00
2022-07-30T23:38:39.651Z,100.00
2022-07-30T23:41:08.090Z,100.00
2022-07-30T23:43:38.524Z,100.00
2022-07-30T23:46:10.899Z,100.00
2022-07-30T23:48:39.826Z,100.00
2022-07-30T23:51:08.426Z,100.00
2022-07-30T23:53:37.068Z,100.00
2022-07-30T23:56:06.218Z,100.00
2022-07-30T23:58:34.868Z,100.00
